Time;durP1;ratioP1;P1;durP2;ratioP2;P2;SDS_P1;SDS_P2;PMS_P1;PMS_P2;Temp;Humidity;BMP_temperature;BMP_pressure;BME280_temperature;BME280_humidity;BME280_pressure;Samples;Min_cycle;Max_cycle;Signal;HPM_P1;HPM_P2
2021/11/28 00:00:48;;;;;;;10.43;6.40;;;;;;;;;;5094550;28;20028;-77
2021/11/28 00:03:15;;;;;;;12.25;7.80;;;;;;;;;;5093353;28;20016;-77
2021/11/28 00:05:42;;;;;;;12.25;7.00;;;;;;;;;;5094099;28;20398;-76
2021/11/28 00:15:55;;;;;;;7.40;5.80;;;;;;;;;;5094995;28;20141;-78
2021/11/28 00:18:22;;;;;;;8.52;5.20;;;;;;;;;;5095010;28;20027;-76
2021/11/28 00:20:48;;;;;;;9.93;5.45;;;;;;;;;;5094903;28;20028;-76
2021/11/28 00:23:14;;;;;;;15.68;10.20;;;;;;;;;;5094298;28;20027;-77
2021/11/28 00:25:41;;;;;;;13.02;9.75;;;;;;;;;;5093435;28;20550;-77
2021/11/28 00:28:07;;;;;;;9.55;6.53;;;;;;;;;;5093031;28;20092;-77
2021/11/28 00:30:33;;;;;;;8.68;6.85;;;;;;;;;;5095680;28;20047;-76
2021/11/28 00:33:00;;;;;;;10.85;5.68;;;;;;;;;;5090798;28;21369;-76
2021/11/28 00:35:26;;;;;;;7.68;5.97;;;;;;;;;;5081969;28;20399;-76
2021/11/28 00:37:52;;;;;;;7.88;4.68;;;;;;;;;;5094754;28;20031;-76
2021/11/28 00:40:19;;;;;;;9.77;4.57;;;;;;;;;;5094876;28;20022;-76
2021/11/28 00:42:45;;;;;;;9.18;4.97;;;;;;;;;;5097947;28;20024;-77
2021/11/28 00:45:11;;;;;;;8.77;4.70;;;;;;;;;;5093960;28;20036;-77
2021/11/28 00:47:37;;;;;;;11.07;5.75;;;;;;;;;;5094847;28;20487;-78
2021/11/28 00:52:35;;;;;;;9.02;4.72;;;;;;;;;;5096764;28;20037;-78
2021/11/28 00:55:03;;;;;;;10.35;5.25;;;;;;;;;;5094544;28;20035;-77
2021/11/28 00:57:29;;;;;;;8.90;4.85;;;;;;;;;;5093612;28;20016;-77
2021/11/28 00:59:56;;;;;;;8.60;4.35;;;;;;;;;;5094615;28;20016;-78
2021/11/28 01:02:23;;;;;;;7.88;5.05;;;;;;;;;;5094903;28;20149;-77
2021/11/28 01:04:49;;;;;;;11.70;4.70;;;;;;;;;;5094057;28;20025;-77
2021/11/28 01:07:15;;;;;;;11.75;5.43;;;;;;;;;;5093198;28;20027;-78
2021/11/28 01:09:41;;;;;;;9.10;5.63;;;;;;;;;;5094081;28;20028;-77
2021/11/28 01:12:08;;;;;;;15.07;8.77;;;;;;;;;;5094059;28;20027;-77
2021/11/28 01:14:35;;;;;;;12.05;6.65;;;;;;;;;;5093990;28;20051;-78
2021/11/28 01:17:01;;;;;;;9.25;6.13;;;;;;;;;;5094179;28;20028;-76
2021/11/28 01:19:27;;;;;;;9.43;5.90;;;;;;;;;;5092771;28;20078;-77
2021/11/28 01:21:55;;;;;;;10.55;4.53;;;;;;;;;;5092443;28;20116;-77
2021/11/28 01:24:21;;;;;;;11.05;5.28;;;;;;;;;;5098930;28;20049;-76
2021/11/28 01:26:48;;;;;;;7.40;6.00;;;;;;;;;;5092753;28;20028;-76
2021/11/28 01:29:14;;;;;;;7.97;4.53;;;;;;;;;;5093027;28;20028;-77
2021/11/28 01:31:40;;;;;;;12.55;6.53;;;;;;;;;;5092056;28;20028;-77
2021/11/28 01:34:07;;;;;;;8.68;4.85;;;;;;;;;;5095674;28;20524;-76
2021/11/28 01:36:34;;;;;;;6.63;4.72;;;;;;;;;;5093451;28;20111;-76
2021/11/28 01:39:00;;;;;;;8.55;5.78;;;;;;;;;;5080682;28;20028;-78
2021/11/28 01:41:26;;;;;;;9.80;5.32;;;;;;;;;;5093729;28;20028;-77
2021/11/28 01:43:53;;;;;;;12.43;6.38;;;;;;;;;;5093221;28;20394;-77
2021/11/28 01:46:19;;;;;;;8.15;6.00;;;;;;;;;;5093617;28;20031;-78
2021/11/28 01:48:46;;;;;;;6.88;4.38;;;;;;;;;;5083640;28;20426;-76
2021/11/28 01:51:12;;;;;;;6.70;5.15;;;;;;;;;;5071974;28;20078;-78
2021/11/28 01:53:38;;;;;;;7.78;6.20;;;;;;;;;;5073410;28;20052;-77
2021/11/28 01:56:05;;;;;;;10.75;6.32;;;;;;;;;;5092764;28;20459;-77
2021/11/28 01:58:31;;;;;;;11.32;9.02;;;;;;;;;;5093065;28;20020;-77
2021/11/28 02:00:58;;;;;;;23.48;13.90;;;;;;;;;;5093473;28;20035;-77
2021/11/28 02:03:24;;;;;;;8.93;5.43;;;;;;;;;;5093302;28;20028;-77
2021/11/28 02:05:52;;;;;;;8.52;4.10;;;;;;;;;;5092524;28;20507;-77
2021/11/28 02:08:18;;;;;;;5.82;3.95;;;;;;;;;;5093490;28;20024;-77
2021/11/28 02:10:44;;;;;;;4.55;3.40;;;;;;;;;;5092734;28;20024;-77
2021/11/28 02:13:11;;;;;;;8.07;3.65;;;;;;;;;;5095923;28;20062;-76
2021/11/28 02:15:37;;;;;;;8.55;4.07;;;;;;;;;;5092573;28;20020;-77
2021/11/28 02:18:04;;;;;;;6.45;3.50;;;;;;;;;;5091798;28;20024;-76
2021/11/28 02:20:31;;;;;;;7.70;4.03;;;;;;;;;;5092986;28;20530;-77
2021/11/28 02:22:58;;;;;;;14.23;6.60;;;;;;;;;;5093601;28;20030;-77
2021/11/28 02:25:27;;;;;;;8.52;4.80;;;;;;;;;;5093725;28;20035;-77
2021/11/28 02:27:54;;;;;;;16.30;7.07;;;;;;;;;;5093523;28;20028;-76
2021/11/28 02:30:20;;;;;;;24.95;12.75;;;;;;;;;;5093508;28;20072;-77
2021/11/28 02:32:47;;;;;;;12.80;8.70;;;;;;;;;;5095907;28;20463;-78
2021/11/28 02:35:14;;;;;;;11.60;6.38;;;;;;;;;;5095400;28;20048;-77
2021/11/28 02:37:42;;;;;;;15.50;7.45;;;;;;;;;;5097356;28;20021;-77
2021/11/28 02:40:08;;;;;;;14.73;7.60;;;;;;;;;;5096532;28;20024;-77
2021/11/28 02:42:34;;;;;;;15.60;7.63;;;;;;;;;;5097509;28;20021;-78
2021/11/28 02:45:00;;;;;;;12.65;7.10;;;;;;;;;;5097374;28;20410;-77
2021/11/28 02:47:26;;;;;;;13.05;7.50;;;;;;;;;;5097270;28;20024;-77
2021/11/28 02:49:52;;;;;;;9.02;4.78;;;;;;;;;;5096153;28;20020;-78
2021/11/28 02:52:18;;;;;;;8.82;5.22;;;;;;;;;;5097386;28;20020;-77
2021/11/28 02:54:45;;;;;;;13.27;5.70;;;;;;;;;;5096841;28;20020;-76
2021/11/28 02:57:11;;;;;;;10.43;6.13;;;;;;;;;;5096304;28;20032;-76
2021/11/28 02:59:37;;;;;;;10.48;6.22;;;;;;;;;;5095881;28;20115;-75
2021/11/28 03:02:04;;;;;;;10.95;4.45;;;;;;;;;;5095531;28;20059;-76
2021/11/28 03:04:30;;;;;;;11.75;4.85;;;;;;;;;;5097055;28;20053;-76
2021/11/28 03:06:56;;;;;;;6.00;4.15;;;;;;;;;;5096200;28;20394;-77
2021/11/28 03:09:22;;;;;;;9.00;4.70;;;;;;;;;;5097188;28;20372;-79
2021/11/28 03:11:48;;;;;;;10.15;4.50;;;;;;;;;;5096420;28;20031;-77
2021/11/28 03:14:14;;;;;;;9.32;4.50;;;;;;;;;;5096045;28;20466;-77
2021/11/28 03:16:40;;;;;;;6.18;3.35;;;;;;;;;;5095300;28;20157;-78
2021/11/28 03:19:06;;;;;;;5.40;3.33;;;;;;;;;;5095855;28;20020;-78
2021/11/28 03:21:34;;;;;;;9.93;4.07;;;;;;;;;;5095937;28;20024;-78
2021/11/28 03:24:01;;;;;;;9.60;3.92;;;;;;;;;;5094497;28;20028;-78
2021/11/28 03:26:32;;;;;;;9.38;5.00;;;;;;;;;;5094840;28;20050;-78
2021/11/28 03:29:05;;;;;;;7.28;3.75;;;;;;;;;;5093818;28;20035;-78
2021/11/28 03:31:34;;;;;;;9.07;3.97;;;;;;;;;;5095794;28;20455;-78
2021/11/28 03:34:01;;;;;;;7.35;4.20;;;;;;;;;;5095275;28;20510;-78
2021/11/28 03:36:28;;;;;;;6.28;4.28;;;;;;;;;;5087365;28;20502;-77
2021/11/28 03:38:55;;;;;;;6.63;5.50;;;;;;;;;;5074301;28;20020;-77
2021/11/28 03:41:22;;;;;;;6.65;4.43;;;;;;;;;;5075274;28;20028;-79
2021/11/28 03:43:49;;;;;;;5.95;3.58;;;;;;;;;;5091224;28;20032;-79
2021/11/28 03:46:15;;;;;;;8.50;3.65;;;;;;;;;;5095247;28;20038;-77
2021/11/28 03:48:41;;;;;;;7.68;4.30;;;;;;;;;;5095471;28;20024;-77
2021/11/28 03:51:08;;;;;;;4.82;3.70;;;;;;;;;;5095343;28;20020;-75
2021/11/28 03:53:34;;;;;;;6.28;3.42;;;;;;;;;;5095452;28;20020;-77
2021/11/28 03:56:03;;;;;;;6.10;3.40;;;;;;;;;;5093170;28;20124;-75
2021/11/28 03:58:29;;;;;;;5.80;3.47;;;;;;;;;;5093678;28;20024;-75
2021/11/28 04:00:56;;;;;;;7.90;3.05;;;;;;;;;;5095436;28;20043;-77
2021/11/28 04:03:22;;;;;;;5.70;2.80;;;;;;;;;;5094314;28;20052;-76
2021/11/28 04:05:48;;;;;;;5.30;2.70;;;;;;;;;;5094911;28;20016;-76
2021/11/28 04:08:17;;;;;;;6.00;2.88;;;;;;;;;;5097078;28;20104;-78
2021/11/28 04:10:43;;;;;;;6.93;3.22;;;;;;;;;;5094224;28;20063;-76
2021/11/28 04:13:11;;;;;;;10.43;3.95;;;;;;;;;;5093614;28;20450;-76
2021/11/28 04:15:37;;;;;;;5.88;4.03;;;;;;;;;;5078241;28;20482;-77
2021/11/28 04:18:03;;;;;;;7.07;3.42;;;;;;;;;;5094948;28;20103;-76
2021/11/28 04:20:29;;;;;;;11.38;4.65;;;;;;;;;;5094862;28;20032;-78
2021/11/28 04:22:55;;;;;;;8.38;4.00;;;;;;;;;;5093911;28;20054;-78
2021/11/28 04:25:22;;;;;;;6.95;3.90;;;;;;;;;;5094849;28;20028;-78
2021/11/28 04:27:48;;;;;;;7.65;4.13;;;;;;;;;;5094432;28;20036;-78
2021/11/28 04:30:14;;;;;;;6.50;3.42;;;;;;;;;;5094459;28;20495;-79
2021/11/28 04:32:40;;;;;;;9.43;4.47;;;;;;;;;;5093909;28;20047;-77
2021/11/28 04:35:06;;;;;;;7.30;3.63;;;;;;;;;;5094349;28;20044;-76
2021/11/28 04:37:33;;;;;;;9.52;3.38;;;;;;;;;;5094494;28;20024;-77
2021/11/28 04:39:59;;;;;;;4.47;3.33;;;;;;;;;;5094363;28;20081;-76
2021/11/28 04:42:25;;;;;;;4.82;2.60;;;;;;;;;;5095612;28;20052;-76
2021/11/28 04:44:51;;;;;;;5.20;2.90;;;;;;;;;;5089958;28;20454;-78
2021/11/28 04:47:20;;;;;;;4.63;2.45;;;;;;;;;;5094410;28;20390;-76
2021/11/28 04:49:48;;;;;;;5.50;2.38;;;;;;;;;;5094520;28;20043;-76
2021/11/28 04:52:14;;;;;;;3.30;2.30;;;;;;;;;;5094045;28;20028;-77
2021/11/28 04:54:40;;;;;;;5.60;2.90;;;;;;;;;;5091669;28;20032;-76
2021/11/28 04:57:07;;;;;;;3.45;2.40;;;;;;;;;;5094171;28;20024;-76
2021/11/28 04:59:33;;;;;;;6.30;2.85;;;;;;;;;;5094201;28;20431;-75
2021/11/28 05:01:59;;;;;;;5.60;2.83;;;;;;;;;;5093338;28;20478;-77
2021/11/28 05:04:25;;;;;;;9.57;2.63;;;;;;;;;;5093387;28;20067;-76
2021/11/28 05:06:51;;;;;;;5.30;3.00;;;;;;;;;;5093378;28;20097;-77
2021/11/28 05:09:17;;;;;;;3.88;2.53;;;;;;;;;;5094107;28;20107;-78
2021/11/28 05:11:44;;;;;;;6.20;2.53;;;;;;;;;;5093218;28;20393;-77
2021/11/28 05:14:10;;;;;;;7.13;2.40;;;;;;;;;;5093608;28;20108;-76
2021/11/28 05:16:38;;;;;;;5.32;2.67;;;;;;;;;;5092866;28;20032;-77
2021/11/28 05:19:04;;;;;;;7.15;2.53;;;;;;;;;;5092353;28;20020;-76
2021/11/28 05:21:30;;;;;;;5.40;2.50;;;;;;;;;;5093932;28;20017;-77
2021/11/28 05:23:57;;;;;;;8.15;2.97;;;;;;;;;;5093425;28;20035;-77
2021/11/28 05:26:23;;;;;;;4.25;2.90;;;;;;;;;;5093191;28;20394;-77
2021/11/28 05:28:49;;;;;;;7.75;2.53;;;;;;;;;;5093518;28;20056;-76
2021/11/28 05:31:18;;;;;;;3.10;2.40;;;;;;;;;;5095264;28;20031;-77
2021/11/28 05:33:47;;;;;;;6.63;2.75;;;;;;;;;;5092919;28;20040;-78
2021/11/28 05:36:14;;;;;;;6.13;2.80;;;;;;;;;;5093437;28;20482;-76
2021/11/28 05:38:40;;;;;;;8.32;2.88;;;;;;;;;;5093958;28;20025;-77
2021/11/28 05:41:06;;;;;;;4.30;2.97;;;;;;;;;;5093547;28;20481;-76
2021/11/28 05:43:33;;;;;;;5.60;2.80;;;;;;;;;;5095238;28;20028;-77
2021/11/28 05:45:59;;;;;;;4.05;2.83;;;;;;;;;;5095323;28;20028;-76
2021/11/28 05:48:25;;;;;;;7.15;3.03;;;;;;;;;;5093396;28;20069;-76
2021/11/28 05:50:51;;;;;;;11.18;3.28;;;;;;;;;;5094059;28;20406;-77
2021/11/28 05:53:17;;;;;;;7.82;3.65;;;;;;;;;;5093430;28;20024;-76
2021/11/28 05:55:50;;;;;;;8.27;2.95;;;;;;;;;;5090914;28;20020;-76
2021/11/28 05:58:25;;;;;;;6.65;2.70;;;;;;;;;;5074315;28;20472;-77
2021/11/28 06:00:51;;;;;;;6.20;3.40;;;;;;;;;;5073234;28;20021;-78
2021/11/28 06:03:17;;;;;;;4.95;2.72;;;;;;;;;;5073258;28;20028;-79
2021/11/28 06:05:45;;;;;;;6.63;3.35;;;;;;;;;;5092534;28;20486;-76
2021/11/28 06:08:12;;;;;;;5.10;2.42;;;;;;;;;;5095976;28;20115;-76
2021/11/28 06:10:38;;;;;;;5.75;3.88;;;;;;;;;;5097636;28;20020;-78
2021/11/28 06:13:04;;;;;;;6.47;3.38;;;;;;;;;;5096958;28;20034;-76
2021/11/28 06:15:31;;;;;;;4.35;2.78;;;;;;;;;;5095837;28;20020;-76
2021/11/28 06:17:57;;;;;;;5.80;2.80;;;;;;;;;;5096296;28;20666;-76
2021/11/28 06:20:23;;;;;;;7.55;3.38;;;;;;;;;;5096626;28;20032;-78
2021/11/28 06:22:49;;;;;;;4.38;2.70;;;;;;;;;;5096636;28;20069;-75
2021/11/28 06:25:16;;;;;;;7.35;3.60;;;;;;;;;;5096770;28;20028;-79
2021/11/28 06:27:44;;;;;;;8.27;3.08;;;;;;;;;;5097863;28;20020;-77
2021/11/28 06:30:11;;;;;;;6.60;3.33;;;;;;;;;;5097176;28;20475;-76
2021/11/28 06:32:37;;;;;;;6.10;3.25;;;;;;;;;;5096992;28;20054;-77
2021/11/28 06:35:04;;;;;;;3.85;2.65;;;;;;;;;;5096392;28;20043;-77
2021/11/28 06:37:30;;;;;;;8.02;3.05;;;;;;;;;;5096659;28;20027;-77
2021/11/28 06:39:59;;;;;;;7.00;3.33;;;;;;;;;;5078576;28;20024;-76
2021/11/28 06:42:25;;;;;;;5.55;3.42;;;;;;;;;;5094625;28;20595;-77
2021/11/28 06:44:51;;;;;;;6.20;2.78;;;;;;;;;;5094842;28;20395;-77
2021/11/28 06:47:17;;;;;;;8.85;3.35;;;;;;;;;;5096481;28;20044;-76
2021/11/28 06:49:43;;;;;;;7.18;2.92;;;;;;;;;;5095450;28;20028;-76
2021/11/28 06:52:13;;;;;;;8.75;3.25;;;;;;;;;;5099185;28;20039;-77
2021/11/28 06:54:39;;;;;;;6.85;3.25;;;;;;;;;;5099737;28;20024;-78
2021/11/28 06:57:06;;;;;;;4.63;2.72;;;;;;;;;;5096239;28;20020;-76
2021/11/28 06:59:32;;;;;;;5.88;3.40;;;;;;;;;;5095474;28;20387;-78
2021/11/28 07:01:59;;;;;;;7.32;2.83;;;;;;;;;;5096523;28;20024;-78
2021/11/28 07:04:28;;;;;;;4.28;3.08;;;;;;;;;;5095876;28;20020;-78
2021/11/28 07:06:54;;;;;;;6.10;2.97;;;;;;;;;;5099067;28;20035;-76
2021/11/28 07:09:20;;;;;;;7.05;2.85;;;;;;;;;;5098075;28;20483;-77
2021/11/28 07:11:46;;;;;;;6.72;2.70;;;;;;;;;;5095902;28;20028;-76
2021/11/28 07:14:12;;;;;;;7.55;3.47;;;;;;;;;;5096261;28;20024;-76
2021/11/28 07:16:38;;;;;;;6.85;2.67;;;;;;;;;;5096933;28;20024;-76
2021/11/28 07:19:04;;;;;;;7.72;3.17;;;;;;;;;;5095118;28;20028;-77
2021/11/28 07:21:32;;;;;;;7.32;3.10;;;;;;;;;;5094499;28;20440;-77
2021/11/28 07:23:58;;;;;;;4.60;3.45;;;;;;;;;;5093727;28;20049;-76
2021/11/28 07:26:24;;;;;;;7.80;3.83;;;;;;;;;;5098729;28;20474;-76
2021/11/28 07:28:50;;;;;;;5.72;3.42;;;;;;;;;;5095374;28;20035;-76
2021/11/28 07:31:18;;;;;;;7.10;3.95;;;;;;;;;;5095342;28;20110;-76
2021/11/28 07:33:44;;;;;;;7.63;3.70;;;;;;;;;;5094666;28;20081;-78
2021/11/28 07:36:10;;;;;;;6.75;3.42;;;;;;;;;;5097025;28;20031;-76
2021/11/28 07:38:36;;;;;;;10.63;3.47;;;;;;;;;;5095065;28;20027;-76
2021/11/28 07:41:03;;;;;;;8.05;3.83;;;;;;;;;;5095448;28;20368;-77
2021/11/28 07:43:29;;;;;;;7.57;4.15;;;;;;;;;;5094606;28;20035;-78
2021/11/28 07:45:55;;;;;;;7.93;3.63;;;;;;;;;;5096463;28;20021;-76
2021/11/28 07:48:22;;;;;;;6.15;3.83;;;;;;;;;;5099650;28;20023;-78
2021/11/28 07:50:49;;;;;;;7.13;3.40;;;;;;;;;;5091832;28;20091;-76
2021/11/28 07:53:15;;;;;;;11.40;3.35;;;;;;;;;;5089664;28;20028;-77
2021/11/28 07:55:42;;;;;;;5.38;3.30;;;;;;;;;;5095315;28;20081;-78
2021/11/28 07:58:08;;;;;;;7.80;3.40;;;;;;;;;;5094218;28;20087;-77
2021/11/28 08:00:35;;;;;;;6.47;4.00;;;;;;;;;;5093938;28;20024;-77
2021/11/28 08:03:01;;;;;;;5.70;3.08;;;;;;;;;;5094561;28;20024;-77
2021/11/28 08:05:27;;;;;;;5.25;3.28;;;;;;;;;;5094380;28;20094;-77
2021/11/28 08:07:54;;;;;;;9.60;3.35;;;;;;;;;;5094330;28;20020;-77
2021/11/28 08:10:20;;;;;;;3.85;3.22;;;;;;;;;;5077720;28;20036;-76
2021/11/28 08:12:46;;;;;;;5.85;3.30;;;;;;;;;;5091069;28;20039;-77
2021/11/28 08:15:16;;;;;;;6.70;3.70;;;;;;;;;;5094890;28;20076;-76
2021/11/28 08:17:51;;;;;;;7.43;4.03;;;;;;;;;;5094540;28;20020;-76
2021/11/28 08:20:22;;;;;;;13.13;3.72;;;;;;;;;;5095251;28;20059;-75
2021/11/28 08:22:48;;;;;;;7.55;3.63;;;;;;;;;;5095338;28;20042;-76
2021/11/28 08:25:15;;;;;;;6.85;3.60;;;;;;;;;;5094782;28;20498;-77
2021/11/28 08:27:42;;;;;;;8.25;3.50;;;;;;;;;;5095105;28;20437;-78
2021/11/28 08:30:14;;;;;;;6.57;3.33;;;;;;;;;;5081685;28;20475;-76
2021/11/28 08:32:40;;;;;;;9.65;4.72;;;;;;;;;;5080993;28;20438;-76
2021/11/28 08:35:07;;;;;;;5.72;3.97;;;;;;;;;;5093428;28;20571;-76
2021/11/28 08:37:34;;;;;;;5.75;4.32;;;;;;;;;;5093557;28;20031;-77
2021/11/28 08:40:02;;;;;;;5.50;3.65;;;;;;;;;;5089575;28;20024;-77
2021/11/28 08:42:32;;;;;;;6.30;3.42;;;;;;;;;;5083109;28;20017;-76
2021/11/28 08:44:58;;;;;;;6.57;3.45;;;;;;;;;;5075063;28;20020;-76
2021/11/28 08:47:24;;;;;;;8.40;4.22;;;;;;;;;;5077506;28;20082;-77
2021/11/28 08:49:50;;;;;;;8.32;4.38;;;;;;;;;;5096232;28;20081;-77
2021/11/28 08:52:17;;;;;;;8.05;4.18;;;;;;;;;;5081238;28;20111;-76
2021/11/28 08:54:43;;;;;;;7.05;3.92;;;;;;;;;;5075431;28;20075;-76
2021/11/28 08:57:09;;;;;;;8.27;3.50;;;;;;;;;;5092155;28;20027;-76
2021/11/28 08:59:35;;;;;;;6.93;3.30;;;;;;;;;;5088466;28;20034;-78
2021/11/28 09:02:01;;;;;;;5.93;3.58;;;;;;;;;;5084235;28;20028;-78
2021/11/28 09:04:27;;;;;;;5.55;2.85;;;;;;;;;;5085795;28;20048;-75
2021/11/28 09:06:53;;;;;;;7.28;4.13;;;;;;;;;;5093442;28;20382;-76
2021/11/28 09:09:20;;;;;;;8.13;3.55;;;;;;;;;;5093619;28;20051;-76
2021/11/28 09:11:46;;;;;;;8.43;3.60;;;;;;;;;;5082088;28;20024;-76
2021/11/28 09:14:12;;;;;;;7.03;3.63;;;;;;;;;;5087290;28;20436;-77
2021/11/28 09:16:38;;;;;;;5.43;3.22;;;;;;;;;;5088490;28;20029;-77
2021/11/28 09:19:08;;;;;;;7.40;3.20;;;;;;;;;;5082669;28;20020;-77
2021/11/28 09:21:34;;;;;;;5.50;3.35;;;;;;;;;;5096397;28;20360;-77
2021/11/28 09:26:45;;;;;;;8.75;3.45;;;;;;;;;;5078407;28;20402;-77
2021/11/28 09:29:14;;;;;;;7.07;3.40;;;;;;;;;;5093069;28;20390;-76
2021/11/28 09:31:40;;;;;;;6.38;3.13;;;;;;;;;;5099909;28;20036;-76
2021/11/28 09:34:07;;;;;;;7.82;3.35;;;;;;;;;;5091434;28;20044;-76
2021/11/28 09:36:33;;;;;;;5.78;3.20;;;;;;;;;;5090862;28;20024;-78
2021/11/28 09:39:01;;;;;;;6.80;3.47;;;;;;;;;;5091791;28;20032;-76
2021/11/28 09:41:30;;;;;;;6.05;3.80;;;;;;;;;;5091185;28;20102;-77
2021/11/28 09:43:58;;;;;;;6.93;4.80;;;;;;;;;;5096919;28;20035;-77
2021/11/28 09:46:26;;;;;;;5.90;3.70;;;;;;;;;;5095037;28;20376;-78
2021/11/28 09:48:59;;;;;;;12.88;5.18;;;;;;;;;;5084664;28;20028;-77
2021/11/28 09:51:29;;;;;;;8.15;3.38;;;;;;;;;;5087954;28;20024;-77
2021/11/28 09:54:00;;;;;;;6.80;3.47;;;;;;;;;;5088269;28;20028;-76
2021/11/28 09:56:26;;;;;;;6.65;3.35;;;;;;;;;;5087405;28;20030;-76
2021/11/28 09:58:53;;;;;;;6.07;3.03;;;;;;;;;;5096604;28;20055;-76
2021/11/28 10:01:19;;;;;;;5.82;2.90;;;;;;;;;;5095996;28;20030;-76
2021/11/28 10:03:45;;;;;;;5.80;2.88;;;;;;;;;;5095051;28;20113;-77
2021/11/28 10:06:11;;;;;;;7.00;3.17;;;;;;;;;;5092161;28;20150;-77
2021/11/28 10:08:38;;;;;;;5.22;3.47;;;;;;;;;;5090517;28;20039;-78
2021/11/28 10:11:04;;;;;;;8.00;3.70;;;;;;;;;;5096890;28;20032;-77
2021/11/28 10:13:30;;;;;;;4.90;3.35;;;;;;;;;;5094795;28;20035;-76
2021/11/28 10:15:56;;;;;;;9.48;3.17;;;;;;;;;;5093704;28;20028;-77
2021/11/28 10:18:22;;;;;;;7.60;3.10;;;;;;;;;;5086470;28;20565;-77
2021/11/28 10:20:51;;;;;;;9.20;2.85;;;;;;;;;;5093552;28;20032;-77
2021/11/28 10:23:17;;;;;;;6.93;4.10;;;;;;;;;;5094430;28;20498;-77
2021/11/28 10:25:43;;;;;;;7.72;3.33;;;;;;;;;;5086938;28;20033;-77
2021/11/28 10:28:10;;;;;;;5.55;2.80;;;;;;;;;;5093270;28;20036;-77
2021/11/28 10:30:36;;;;;;;7.40;3.83;;;;;;;;;;5091884;28;20032;-77
2021/11/28 10:33:21;;;;;;;6.95;4.25;;;;;;;;;;5094394;28;20037;-77
2021/11/28 10:36:02;;;;;;;18.50;9.43;;;;;;;;;;5089725;28;20134;-78
2021/11/28 10:38:34;;;;;;;9.15;4.65;;;;;;;;;;5082803;28;20029;-76
2021/11/28 10:41:00;;;;;;;14.50;6.43;;;;;;;;;;5092007;28;20024;-76
2021/11/28 10:43:26;;;;;;;8.25;6.82;;;;;;;;;;5094748;28;20038;-77
2021/11/28 10:45:53;;;;;;;8.52;4.60;;;;;;;;;;5094880;28;20028;-78
2021/11/28 10:48:27;;;;;;;6.50;4.55;;;;;;;;;;5095824;28;20020;-76
2021/11/28 10:50:59;;;;;;;7.05;3.88;;;;;;;;;;5086152;28;20027;-76
2021/11/28 10:53:25;;;;;;;6.88;4.47;;;;;;;;;;5095792;28;20498;-77
2021/11/28 10:55:52;;;;;;;11.52;5.18;;;;;;;;;;5091341;28;20025;-76
2021/11/28 10:58:24;;;;;;;9.00;4.20;;;;;;;;;;5093632;28;20031;-77
2021/11/28 11:00:50;;;;;;;11.32;4.55;;;;;;;;;;5085214;28;20036;-76
2021/11/28 11:03:20;;;;;;;7.97;4.70;;;;;;;;;;5084985;28;20024;-77
2021/11/28 11:05:47;;;;;;;25.33;10.85;;;;;;;;;;5090415;28;20016;-77
2021/11/28 11:08:15;;;;;;;30.27;11.73;;;;;;;;;;5078758;28;20607;-76
2021/11/28 11:10:42;;;;;;;23.73;10.88;;;;;;;;;;5094256;28;20027;-77
2021/11/28 11:13:12;;;;;;;17.42;9.25;;;;;;;;;;5090651;28;20039;-76
2021/11/28 11:15:45;;;;;;;21.48;10.48;;;;;;;;;;5094870;28;20032;-77
2021/11/28 11:18:14;;;;;;;32.60;15.00;;;;;;;;;;5090155;28;20012;-78
2021/11/28 11:20:41;;;;;;;11.00;6.20;;;;;;;;;;5078933;28;20438;-78
2021/11/28 11:23:29;;;;;;;10.10;5.88;;;;;;;;;;5092786;28;20051;-77
2021/11/28 11:26:10;;;;;;;7.68;3.28;;;;;;;;;;5093915;28;20028;-77
2021/11/28 11:28:36;;;;;;;5.07;3.75;;;;;;;;;;5095688;28;20036;-77
2021/11/28 11:31:04;;;;;;;6.22;5.63;;;;;;;;;;5094691;28;20032;-78
2021/11/28 11:33:34;;;;;;;5.85;4.10;;;;;;;;;;5083180;28;20031;-77
2021/11/28 11:36:00;;;;;;;5.95;4.50;;;;;;;;;;5082887;28;20071;-77
2021/11/28 11:38:27;;;;;;;5.57;3.65;;;;;;;;;;5094969;28;20020;-77
2021/11/28 11:40:54;;;;;;;8.25;3.95;;;;;;;;;;5078019;28;20059;-77
2021/11/28 11:43:21;;;;;;;8.27;3.28;;;;;;;;;;5084895;28;20025;-78
2021/11/28 11:45:49;;;;;;;6.97;3.53;;;;;;;;;;5085751;28;20029;-78
2021/11/28 11:48:15;;;;;;;5.82;4.00;;;;;;;;;;5090888;28;20538;-77
2021/11/28 11:50:42;;;;;;;5.32;3.50;;;;;;;;;;5090779;28;20125;-79
2021/11/28 11:53:08;;;;;;;8.80;4.43;;;;;;;;;;5084004;28;20070;-78
2021/11/28 11:55:41;;;;;;;5.65;3.70;;;;;;;;;;5084547;28;20032;-76
2021/11/28 11:58:10;;;;;;;6.57;3.53;;;;;;;;;;5079153;28;20031;-78
2021/11/28 12:00:59;;;;;;;5.22;3.00;;;;;;;;;;5088564;28;20024;-76
2021/11/28 12:03:25;;;;;;;6.93;4.28;;;;;;;;;;5083840;28;20024;-77
2021/11/28 12:05:52;;;;;;;3.58;2.95;;;;;;;;;;5085277;28;20024;-80
2021/11/28 12:08:19;;;;;;;5.35;3.63;;;;;;;;;;5083542;28;20023;-78
2021/11/28 12:10:48;;;;;;;3.95;3.55;;;;;;;;;;5092178;28;20451;-77
2021/11/28 12:13:34;;;;;;;7.63;3.67;;;;;;;;;;5085931;28;20048;-77
2021/11/28 12:15:59;;;;;;;;;;;;;;;;;;5095420;28;20032;-76
2021/11/28 12:18:35;;;;;;;4.28;3.15;;;;;;;;;;5088516;28;19916;-76
2021/11/28 12:21:04;;;;;;;5.90;3.95;;;;;;;;;;5091851;28;20057;-78
2021/11/28 12:23:49;;;;;;;5.30;4.28;;;;;;;;;;5097090;28;20024;-76
2021/11/28 12:26:30;;;;;;;6.55;4.20;;;;;;;;;;5081694;28;20024;-76
2021/11/28 12:29:11;;;;;;;6.75;4.07;;;;;;;;;;5076236;28;20386;-77
2021/11/28 12:31:39;;;;;;;4.00;3.53;;;;;;;;;;5086569;28;20075;-77
2021/11/28 12:34:09;;;;;;;4.50;3.33;;;;;;;;;;5087044;28;20040;-76
2021/11/28 12:37:08;;;;;;;4.28;3.38;;;;;;;;;;5097309;28;20016;-78
2021/11/28 12:39:36;;;;;;;4.65;3.40;;;;;;;;;;5078349;28;20482;-76
2021/11/28 12:42:06;;;;;;;4.40;3.30;;;;;;;;;;5087365;28;20024;-75
2021/11/28 12:44:55;;;;;;;4.55;3.65;;;;;;;;;;5088461;28;20027;-76
2021/11/28 12:47:25;;;;;;;6.90;4.00;;;;;;;;;;5074076;28;20056;-75
2021/11/28 12:49:53;;;;;;;4.00;3.60;;;;;;;;;;5092955;28;20034;-75
2021/11/28 12:52:26;;;;;;;6.57;4.80;;;;;;;;;;5095016;28;20069;-75
2021/11/28 12:55:09;;;;;;;8.30;4.38;;;;;;;;;;5093278;28;20020;-76
2021/11/28 12:57:37;;;;;;;4.95;3.65;;;;;;;;;;5090478;28;20220;-75
2021/11/28 13:00:13;;;;;;;4.80;3.72;;;;;;;;;;5093111;28;20020;-76
2021/11/28 13:02:44;;;;;;;7.40;5.35;;;;;;;;;;5084215;28;20088;-76
2021/11/28 13:05:29;;;;;;;6.15;4.45;;;;;;;;;;5092281;28;20075;-75
2021/11/28 13:07:55;;;;;;;6.07;4.60;;;;;;;;;;5092751;28;20028;-76
2021/11/28 13:10:29;;;;;;;5.55;4.32;;;;;;;;;;5089840;28;20032;-76
2021/11/28 13:12:56;;;;;;;8.10;5.45;;;;;;;;;;5081327;28;20441;-77
2021/11/28 13:15:24;;;;;;;9.57;6.22;;;;;;;;;;5091910;28;20071;-76
2021/11/28 13:17:50;;;;;;;7.13;5.38;;;;;;;;;;5090427;28;20035;-75
2021/11/28 13:20:16;;;;;;;6.57;5.72;;;;;;;;;;5082939;28;20028;-76
2021/11/28 13:22:42;;;;;;;5.93;4.82;;;;;;;;;;5079395;28;20031;-76
2021/11/28 13:25:29;;;;;;;10.90;5.97;;;;;;;;;;5081413;28;20099;-77
2021/11/28 13:28:02;;;;;;;13.57;7.20;;;;;;;;;;5087941;28;20035;-77
2021/11/28 13:30:34;;;;;;;11.68;7.05;;;;;;;;;;5085942;28;20479;-77
2021/11/28 13:33:06;;;;;;;21.33;11.93;;;;;;;;;;5083822;28;20081;-75
2021/11/28 13:35:35;;;;;;;17.25;11.60;;;;;;;;;;5088456;28;20052;-76
2021/11/28 13:38:18;;;;;;;14.30;10.57;;;;;;;;;;5083675;28;20478;-76
2021/11/28 13:41:03;;;;;;;42.35;27.30;;;;;;;;;;5081529;28;20471;-75
2021/11/28 13:43:33;;;;;;;63.88;36.58;;;;;;;;;;5089176;28;20103;-77
2021/11/28 13:45:59;;;;;;;62.60;35.80;;;;;;;;;;5091876;28;20035;-76
2021/11/28 13:48:40;;;;;;;29.08;18.02;;;;;;;;;;5094313;28;20027;-75
2021/11/28 13:51:06;;;;;;;19.27;12.75;;;;;;;;;;5082140;28;20037;-75
2021/11/28 13:53:32;;;;;;;30.13;19.33;;;;;;;;;;5090955;28;20033;-76
2021/11/28 13:55:58;;;;;;;31.60;20.52;;;;;;;;;;5086094;28;20049;-78
2021/11/28 13:58:24;;;;;;;27.77;17.88;;;;;;;;;;5077660;28;20025;-76
2021/11/28 14:00:51;;;;;;;20.48;14.10;;;;;;;;;;5090158;28;20024;-76
2021/11/28 14:03:17;;;;;;;18.08;12.50;;;;;;;;;;5085910;28;20390;-76
2021/11/28 14:05:44;;;;;;;21.20;12.48;;;;;;;;;;5092852;28;20103;-77
2021/11/28 14:08:10;;;;;;;25.85;12.90;;;;;;;;;;5097739;28;20077;-78
2021/11/28 14:10:39;;;;;;;22.30;13.02;;;;;;;;;;5093603;28;20028;-78
2021/11/28 14:13:07;;;;;;;58.25;24.95;;;;;;;;;;5093401;28;20028;-75
2021/11/28 14:15:35;;;;;;;40.92;17.98;;;;;;;;;;5085470;28;20551;-76
2021/11/28 14:18:09;;;;;;;43.97;20.30;;;;;;;;;;5092679;28;20024;-76
2021/11/28 14:20:36;;;;;;;40.25;21.00;;;;;;;;;;5091812;28;20023;-76
2021/11/28 14:23:06;;;;;;;39.83;24.02;;;;;;;;;;5094521;28;20028;-76
2021/11/28 14:25:37;;;;;;;24.80;15.30;;;;;;;;;;5088132;28;20027;-75
2021/11/28 14:28:22;;;;;;;18.92;13.05;;;;;;;;;;5093335;28;20024;-77
2021/11/28 14:30:50;;;;;;;17.90;13.48;;;;;;;;;;5091967;28;20505;-76
2021/11/28 14:33:18;;;;;;;16.25;12.13;;;;;;;;;;5095692;28;20036;-77
2021/11/28 14:35:49;;;;;;;19.30;14.88;;;;;;;;;;5099184;28;20040;-73
2021/11/28 14:38:16;;;;;;;15.23;10.68;;;;;;;;;;5100045;28;20034;-77
2021/11/28 14:40:43;;;;;;;13.25;9.25;;;;;;;;;;5100210;28;20421;-78
2021/11/28 14:43:16;;;;;;;16.13;12.50;;;;;;;;;;5087593;28;20163;-77
2021/11/28 14:45:42;;;;;;;17.98;11.20;;;;;;;;;;5084750;28;20024;-77
2021/11/28 14:48:12;;;;;;;16.05;12.52;;;;;;;;;;5088376;28;20033;-79
2021/11/28 14:50:48;;;;;;;31.13;18.77;;;;;;;;;;5100479;28;20397;-75
2021/11/28 14:53:14;;;;;;;22.80;18.25;;;;;;;;;;5102964;28;20024;-77
2021/11/28 14:55:41;;;;;;;24.55;17.27;;;;;;;;;;5103106;28;20475;-76